Time;durP1;ratioP1;P1;durP2;ratioP2;P2;SDS_P1;SDS_P2;PMS_P1;PMS_P2;Temp;Humidity;BMP_temperature;BMP_pressure;BME280_temperature;BME280_humidity;BME280_pressure;Samples;Min_cycle;Max_cycle;Signal;HPM_P1;HPM_P2
2019/08/03 00:00:40;;;;;;;8.650002;7.1;;;;;;;14.57;100;95076.09;;;;
2019/08/03 00:01:44;;;;;;;8.650002;7.1;;;;;;;14.57;100;95076.09;;;;
2019/08/03 00:02:45;;;;;;;8.650002;7.1;;;;;;;14.57;100;95076.09;;;;
2019/08/03 00:03:46;;;;;;;8.650002;7.1;;;;;;;14.57;100;95076.09;;;;
2019/08/03 00:04:47;;;;;;;8.650002;7.1;;;;;;;14.57;100;95076.09;;;;
2019/08/03 00:05:48;;;;;;;8.650002;7.1;;;;;;;14.57;100;95076.09;;;;
2019/08/03 00:06:50;;;;;;;8.650002;7.1;;;;;;;14.57;100;95076.09;;;;
2019/08/03 00:07:51;;;;;;;8.650002;7.1;;;;;;;14.57;100;95076.09;;;;
2019/08/03 00:08:52;;;;;;;8.650002;7.1;;;;;;;14.57;100;95076.09;;;;
2019/08/03 00:09:53;;;;;;;7.900001;6.95;;;;;;;14.63;100;95070.01;;;;
2019/08/03 00:10:54;;;;;;;7.900001;6.95;;;;;;;14.63;100;95070.01;;;;
2019/08/03 00:11:56;;;;;;;7.900001;6.95;;;;;;;14.63;100;95070.01;;;;
2019/08/03 00:12:57;;;;;;;7.900001;6.95;;;;;;;14.63;100;95070.01;;;;
2019/08/03 00:13:58;;;;;;;7.900001;6.95;;;;;;;14.63;100;95070.01;;;;
2019/08/03 00:14:59;;;;;;;7.900001;6.95;;;;;;;14.63;100;95070.01;;;;
2019/08/03 00:16:00;;;;;;;7.900001;6.95;;;;;;;14.63;100;95070.01;;;;
2019/08/03 00:17:01;;;;;;;7.900001;6.95;;;;;;;14.63;100;95070.01;;;;
2019/08/03 00:18:03;;;;;;;7.900001;6.95;;;;;;;14.63;100;95070.01;;;;
2019/08/03 00:19:04;;;;;;;7.900001;6.95;;;;;;;14.63;100;95070.01;;;;
2019/08/03 00:20:05;;;;;;;8;7.25;;;;;;;14.66;100;95051.01;;;;
2019/08/03 00:21:22;;;;;;;8;7.25;;;;;;;14.66;100;95051.01;;;;
2019/08/03 00:22:34;;;;;;;8;7.25;;;;;;;14.66;100;95051.01;;;;
2019/08/03 00:23:35;;;;;;;8;7.25;;;;;;;14.66;100;95051.01;;;;
2019/08/03 00:24:36;;;;;;;8;7.25;;;;;;;14.66;100;95051.01;;;;
2019/08/03 00:25:37;;;;;;;8;7.25;;;;;;;14.66;100;95051.01;;;;
2019/08/03 00:26:42;;;;;;;8;7.25;;;;;;;14.66;100;95051.01;;;;
2019/08/03 00:27:44;;;;;;;8;7.25;;;;;;;14.66;100;95051.01;;;;
2019/08/03 00:28:51;;;;;;;8;7.25;;;;;;;14.66;100;95051.01;;;;
2019/08/03 00:29:52;;;;;;;8;7.25;;;;;;;14.66;100;95051.01;;;;
2019/08/03 00:30:54;;;;;;;7.749999;7.050001;;;;;;;14.79;100;95048.72;;;;
2019/08/03 00:31:55;;;;;;;7.749999;7.050001;;;;;;;14.79;100;95048.72;;;;
2019/08/03 00:32:57;;;;;;;7.749999;7.050001;;;;;;;14.79;100;95048.72;;;;
2019/08/03 00:33:58;;;;;;;7.749999;7.050001;;;;;;;14.79;100;95048.72;;;;
2019/08/03 00:34:59;;;;;;;7.749999;7.050001;;;;;;;14.79;100;95048.72;;;;
2019/08/03 00:36:00;;;;;;;7.749999;7.050001;;;;;;;14.79;100;95048.72;;;;
2019/08/03 00:37:02;;;;;;;7.749999;7.050001;;;;;;;14.79;100;95048.72;;;;
2019/08/03 00:38:03;;;;;;;7.749999;7.050001;;;;;;;14.79;100;95048.72;;;;
2019/08/03 00:39:04;;;;;;;7.749999;7.050001;;;;;;;14.79;100;95048.72;;;;
2019/08/03 00:40:07;;;;;;;7.749999;7.050001;;;;;;;14.79;100;95048.72;;;;
2019/08/03 00:41:09;;;;;;;7.749999;7.050001;;;;;;;14.79;100;95048.72;;;;
2019/08/03 00:42:10;;;;;;;6.149999;5.5;;;;;;;14.9;100;95060.85;;;;
2019/08/03 00:43:11;;;;;;;6.149999;5.5;;;;;;;14.9;100;95060.85;;;;
2019/08/03 00:44:13;;;;;;;6.149999;5.5;;;;;;;14.9;100;95060.85;;;;
2019/08/03 00:45:14;;;;;;;6.149999;5.5;;;;;;;14.9;100;95060.85;;;;
2019/08/03 00:46:16;;;;;;;6.149999;5.5;;;;;;;14.9;100;95060.85;;;;
2019/08/03 00:47:18;;;;;;;6.149999;5.5;;;;;;;14.9;100;95060.85;;;;
2019/08/03 00:48:19;;;;;;;6.149999;5.5;;;;;;;14.9;100;95060.85;;;;
2019/08/03 00:49:20;;;;;;;6.149999;5.5;;;;;;;14.9;100;95060.85;;;;
2019/08/03 00:50:21;;;;;;;6.149999;5.5;;;;;;;14.9;100;95060.85;;;;
2019/08/03 00:51:22;;;;;;;6.149999;5.5;;;;;;;14.9;100;95060.85;;;;
2019/08/03 00:52:23;;;;;;;7.099999;6.400001;;;;;;;14.98;100;95059.39;;;;
2019/08/03 00:53:25;;;;;;;7.099999;6.400001;;;;;;;14.98;100;95059.39;;;;
2019/08/03 00:54:26;;;;;;;7.099999;6.400001;;;;;;;14.98;100;95059.39;;;;
2019/08/03 00:55:27;;;;;;;7.099999;6.400001;;;;;;;14.98;100;95059.39;;;;
2019/08/03 00:56:30;;;;;;;7.099999;6.400001;;;;;;;14.98;100;95059.39;;;;
2019/08/03 00:57:31;;;;;;;7.099999;6.400001;;;;;;;14.98;100;95059.39;;;;
2019/08/03 00:58:32;;;;;;;7.099999;6.400001;;;;;;;14.98;100;95059.39;;;;
2019/08/03 00:59:33;;;;;;;7.099999;6.400001;;;;;;;14.98;100;95059.39;;;;
2019/08/03 01:00:34;;;;;;;7.099999;6.400001;;;;;;;14.98;100;95059.39;;;;
2019/08/03 01:01:36;;;;;;;7.099999;6.400001;;;;;;;14.98;100;95059.39;;;;
2019/08/03 01:02:37;;;;;;;8.6;7.550001;;;;;;;14.91;100;95061.97;;;;
2019/08/03 01:03:38;;;;;;;8.6;7.550001;;;;;;;14.91;100;95061.97;;;;
2019/08/03 01:04:40;;;;;;;8.6;7.550001;;;;;;;14.91;100;95061.97;;;;
2019/08/03 01:05:41;;;;;;;8.6;7.550001;;;;;;;14.91;100;95061.97;;;;
2019/08/03 01:06:42;;;;;;;8.6;7.550001;;;;;;;14.91;100;95061.97;;;;
2019/08/03 01:07:43;;;;;;;8.6;7.550001;;;;;;;14.91;100;95061.97;;;;
2019/08/03 01:08:44;;;;;;;8.6;7.550001;;;;;;;14.91;100;95061.97;;;;
2019/08/03 01:09:46;;;;;;;8.6;7.550001;;;;;;;14.91;100;95061.97;;;;
2019/08/03 01:10:47;;;;;;;8.6;7.550001;;;;;;;14.91;100;95061.97;;;;
2019/08/03 01:11:48;;;;;;;8.6;7.550001;;;;;;;14.91;100;95061.97;;;;
2019/08/03 01:12:49;;;;;;;8.6;7.550001;;;;;;;14.91;100;95061.97;;;;
2019/08/03 01:13:50;;;;;;;8.799998;7.9;;;;;;;14.95;100;95102.47;;;;
2019/08/03 01:14:52;;;;;;;8.799998;7.9;;;;;;;14.95;100;95102.47;;;;
2019/08/03 01:15:53;;;;;;;8.799998;7.9;;;;;;;14.95;100;95102.47;;;;
2019/08/03 01:16:57;;;;;;;8.799998;7.9;;;;;;;14.95;100;95102.47;;;;
2019/08/03 01:17:58;;;;;;;8.799998;7.9;;;;;;;14.95;100;95102.47;;;;
2019/08/03 01:18:59;;;;;;;8.799998;7.9;;;;;;;14.95;100;95102.47;;;;
2019/08/03 01:20:00;;;;;;;8.799998;7.9;;;;;;;14.95;100;95102.47;;;;
2019/08/03 01:21:02;;;;;;;8.799998;7.9;;;;;;;14.95;100;95102.47;;;;
2019/08/03 01:22:04;;;;;;;8.799998;7.9;;;;;;;14.95;100;95102.47;;;;
2019/08/03 01:23:05;;;;;;;8.799998;7.9;;;;;;;14.95;100;95102.47;;;;
2019/08/03 01:24:06;;;;;;;6.85;6.15;;;;;;;14.96;100;95108.73;;;;
2019/08/03 01:25:08;;;;;;;6.85;6.15;;;;;;;14.96;100;95108.73;;;;
2019/08/03 01:26:09;;;;;;;6.85;6.15;;;;;;;14.96;100;95108.73;;;;
2019/08/03 01:27:10;;;;;;;6.85;6.15;;;;;;;14.96;100;95108.73;;;;
2019/08/03 01:28:12;;;;;;;6.85;6.15;;;;;;;14.96;100;95108.73;;;;
2019/08/03 01:29:13;;;;;;;6.85;6.15;;;;;;;14.96;100;95108.73;;;;
2019/08/03 01:30:14;;;;;;;6.85;6.15;;;;;;;14.96;100;95108.73;;;;
2019/08/03 01:31:16;;;;;;;6.85;6.15;;;;;;;14.96;100;95108.73;;;;
2019/08/03 01:32:17;;;;;;;6.85;6.15;;;;;;;14.96;100;95108.73;;;;
2019/08/03 01:33:18;;;;;;;6.85;6.15;;;;;;;14.96;100;95108.73;;;;
2019/08/03 01:34:20;;;;;;;8;6.700001;;;;;;;14.97;100;95118.5;;;;
2019/08/03 01:35:21;;;;;;;8;6.700001;;;;;;;14.97;100;95118.5;;;;
2019/08/03 01:36:22;;;;;;;8;6.700001;;;;;;;14.97;100;95118.5;;;;
2019/08/03 01:37:23;;;;;;;8;6.700001;;;;;;;14.97;100;95118.5;;;;
2019/08/03 01:38:24;;;;;;;8;6.700001;;;;;;;14.97;100;95118.5;;;;
2019/08/03 01:39:26;;;;;;;8;6.700001;;;;;;;14.97;100;95118.5;;;;
2019/08/03 01:40:27;;;;;;;8;6.700001;;;;;;;14.97;100;95118.5;;;;
2019/08/03 01:41:28;;;;;;;8;6.700001;;;;;;;14.97;100;95118.5;;;;
2019/08/03 01:42:36;;;;;;;8;6.700001;;;;;;;14.97;100;95118.5;;;;
2019/08/03 01:43:38;;;;;;;8;6.700001;;;;;;;14.97;100;95118.5;;;;
2019/08/03 01:44:39;;;;;;;8;6.700001;;;;;;;14.97;100;95118.5;;;;
2019/08/03 01:45:40;;;;;;;8.150002;7.100001;;;;;;;14.92;100;95118.5;;;;
2019/08/03 01:46:41;;;;;;;8.150002;7.100001;;;;;;;14.92;100;95118.5;;;;
2019/08/03 01:47:42;;;;;;;8.150002;7.100001;;;;;;;14.92;100;95118.5;;;;
2019/08/03 01:48:44;;;;;;;8.150002;7.100001;;;;;;;14.92;100;95118.5;;;;
2019/08/03 01:49:45;;;;;;;8.150002;7.100001;;;;;;;14.92;100;95118.5;;;;
2019/08/03 01:50:46;;;;;;;8.150002;7.100001;;;;;;;14.92;100;95118.5;;;;
2019/08/03 01:51:47;;;;;;;8.150002;7.100001;;;;;;;14.92;100;95118.5;;;;
2019/08/03 01:52:48;;;;;;;8.150002;7.100001;;;;;;;14.92;100;95118.5;;;;
2019/08/03 01:53:49;;;;;;;8.150002;7.100001;;;;;;;14.92;100;95118.5;;;;
2019/08/03 01:54:51;;;;;;;8.150002;7.100001;;;;;;;14.92;100;95118.5;;;;
2019/08/03 01:55:52;;;;;;;8.850001;7.05;;;;;;;14.92;100;95108.45;;;;
2019/08/03 01:56:53;;;;;;;8.850001;7.05;;;;;;;14.92;100;95108.45;;;;
2019/08/03 01:57:54;;;;;;;8.850001;7.05;;;;;;;14.92;100;95108.45;;;;
2019/08/03 01:58:56;;;;;;;8.850001;7.05;;;;;;;14.92;100;95108.45;;;;
2019/08/03 01:59:57;;;;;;;8.850001;7.05;;;;;;;14.92;100;95108.45;;;;
2019/08/03 02:00:58;;;;;;;8.850001;7.05;;;;;;;14.92;100;95108.45;;;;
2019/08/03 02:02:03;;;;;;;8.850001;7.05;;;;;;;14.92;100;95108.45;;;;
2019/08/03 02:03:04;;;;;;;8.850001;7.05;;;;;;;14.92;100;95108.45;;;;
2019/08/03 02:04:06;;;;;;;8.850001;7.05;;;;;;;14.92;100;95108.45;;;;
2019/08/03 02:05:07;;;;;;;8.850001;7.05;;;;;;;14.92;100;95108.45;;;;
2019/08/03 02:06:09;;;;;;;9.900002;8.299998;;;;;;;14.89;100;95103.55;;;;
2019/08/03 02:07:11;;;;;;;9.900002;8.299998;;;;;;;14.89;100;95103.55;;;;
2019/08/03 02:08:12;;;;;;;9.900002;8.299998;;;;;;;14.89;100;95103.55;;;;
2019/08/03 02:09:14;;;;;;;9.900002;8.299998;;;;;;;14.89;100;95103.55;;;;
2019/08/03 02:10:47;;;;;;;9.900002;8.299998;;;;;;;14.89;100;95103.55;;;;
2019/08/03 02:11:48;;;;;;;9.900002;8.299998;;;;;;;14.89;100;95103.55;;;;
2019/08/03 02:12:49;;;;;;;9.900002;8.299998;;;;;;;14.89;100;95103.55;;;;
2019/08/03 02:13:50;;;;;;;9.900002;8.299998;;;;;;;14.89;100;95103.55;;;;
2019/08/03 02:14:52;;;;;;;9.900002;8.299998;;;;;;;14.89;100;95103.55;;;;
2019/08/03 02:15:53;;;;;;;9.900002;8.299998;;;;;;;14.89;100;95103.55;;;;
2019/08/03 02:16:55;;;;;;;9.75;8.750001;;;;;;;14.96;100;95092.3;;;;
2019/08/03 02:17:56;;;;;;;9.75;8.750001;;;;;;;14.96;100;95092.3;;;;
2019/08/03 02:18:57;;;;;;;9.75;8.750001;;;;;;;14.96;100;95092.3;;;;
2019/08/03 02:19:58;;;;;;;9.75;8.750001;;;;;;;14.96;100;95092.3;;;;
2019/08/03 02:21:00;;;;;;;9.75;8.750001;;;;;;;14.96;100;95092.3;;;;
2019/08/03 02:22:01;;;;;;;9.75;8.750001;;;;;;;14.96;100;95092.3;;;;
2019/08/03 02:23:03;;;;;;;9.75;8.750001;;;;;;;14.96;100;95092.3;;;;
2019/08/03 02:24:04;;;;;;;9.75;8.750001;;;;;;;14.96;100;95092.3;;;;
2019/08/03 02:25:05;;;;;;;9.75;8.750001;;;;;;;14.96;100;95092.3;;;;
2019/08/03 02:26:06;;;;;;;9.75;8.750001;;;;;;;14.96;100;95092.3;;;;
2019/08/03 02:27:08;;;;;;;8.800001;7.799999;;;;;;;14.98;100;95098.41;;;;
2019/08/03 02:28:09;;;;;;;8.800001;7.799999;;;;;;;14.98;100;95098.41;;;;
2019/08/03 02:29:11;;;;;;;8.800001;7.799999;;;;;;;14.98;100;95098.41;;;;
2019/08/03 02:30:12;;;;;;;8.800001;7.799999;;;;;;;14.98;100;95098.41;;;;
2019/08/03 02:31:14;;;;;;;8.800001;7.799999;;;;;;;14.98;100;95098.41;;;;
2019/08/03 02:32:18;;;;;;;8.800001;7.799999;;;;;;;14.98;100;95098.41;;;;
2019/08/03 02:33:19;;;;;;;8.800001;7.799999;;;;;;;14.98;100;95098.41;;;;
2019/08/03 02:34:21;;;;;;;8.800001;7.799999;;;;;;;14.98;100;95098.41;;;;
2019/08/03 02:35:22;;;;;;;8.800001;7.799999;;;;;;;14.98;100;95098.41;;;;
2019/08/03 02:36:24;;;;;;;8.800001;7.799999;;;;;;;14.98;100;95098.41;;;;
2019/08/03 02:37:26;;;;;;;8.800001;7.799999;;;;;;;14.98;100;95098.41;;;;
2019/08/03 02:38:27;;;;;;;8.499999;6.5;;;;;;;15.01;100;95085.5;;;;
2019/08/03 02:39:28;;;;;;;8.499999;6.5;;;;;;;15.01;100;95085.5;;;;
2019/08/03 02:40:30;;;;;;;8.499999;6.5;;;;;;;15.01;100;95085.5;;;;
2019/08/03 02:41:32;;;;;;;8.499999;6.5;;;;;;;15.01;100;95085.5;;;;
2019/08/03 02:42:33;;;;;;;8.499999;6.5;;;;;;;15.01;100;95085.5;;;;
2019/08/03 02:43:34;;;;;;;8.499999;6.5;;;;;;;15.01;100;95085.5;;;;
2019/08/03 02:44:36;;;;;;;8.499999;6.5;;;;;;;15.01;100;95085.5;;;;
2019/08/03 02:45:37;;;;;;;8.499999;6.5;;;;;;;15.01;100;95085.5;;;;
2019/08/03 02:46:55;;;;;;;8.499999;6.5;;;;;;;15.01;100;95085.5;;;;
2019/08/03 02:47:57;;;;;;;8.499999;6.5;;;;;;;15.01;100;95085.5;;;;
2019/08/03 02:48:58;;;;;;;10.35;8.550002;;;;;;;14.83;100;95083.81;;;;
2019/08/03 02:49:59;;;;;;;10.35;8.550002;;;;;;;14.83;100;95083.81;;;;
2019/08/03 02:51:00;;;;;;;10.35;8.550002;;;;;;;14.83;100;95083.81;;;;
2019/08/03 02:52:01;;;;;;;10.35;8.550002;;;;;;;14.83;100;95083.81;;;;
2019/08/03 02:53:03;;;;;;;10.35;8.550002;;;;;;;14.83;100;95083.81;;;;
2019/08/03 02:54:04;;;;;;;10.35;8.550002;;;;;;;14.83;100;95083.81;;;;
2019/08/03 02:55:05;;;;;;;10.35;8.550002;;;;;;;14.83;100;95083.81;;;;
2019/08/03 02:56:07;;;;;;;10.35;8.550002;;;;;;;14.83;100;95083.81;;;;
2019/08/03 02:57:09;;;;;;;10.35;8.550002;;;;;;;14.83;100;95083.81;;;;
2019/08/03 02:58:10;;;;;;;10.35;8.550002;;;;;;;14.83;100;95083.81;;;;
2019/08/03 02:59:11;;;;;;;8.049999;7;;;;;;;14.52;100;95075.13;;;;
2019/08/03 03:00:12;;;;;;;8.049999;7;;;;;;;14.52;100;95075.13;;;;
2019/08/03 03:01:27;;;;;;;8.049999;7;;;;;;;14.52;100;95075.13;;;;
2019/08/03 03:02:28;;;;;;;8.049999;7;;;;;;;14.52;100;95075.13;;;;
2019/08/03 03:03:29;;;;;;;8.049999;7;;;;;;;14.52;100;95075.13;;;;
2019/08/03 03:04:31;;;;;;;8.049999;7;;;;;;;14.52;100;95075.13;;;;
2019/08/03 03:05:32;;;;;;;8.049999;7;;;;;;;14.52;100;95075.13;;;;
2019/08/03 03:06:33;;;;;;;8.049999;7;;;;;;;14.52;100;95075.13;;;;
2019/08/03 03:07:34;;;;;;;8.049999;7;;;;;;;14.52;100;95075.13;;;;
2019/08/03 03:08:36;;;;;;;8.049999;7;;;;;;;14.52;100;95075.13;;;;
2019/08/03 03:09:37;;;;;;;9.250002;7.200001;;;;;;;14.19;100;95069.09;;;;
2019/08/03 03:10:38;;;;;;;9.250002;7.200001;;;;;;;14.19;100;95069.09;;;;
2019/08/03 03:11:39;;;;;;;9.250002;7.200001;;;;;;;14.19;100;95069.09;;;;
2019/08/03 03:12:41;;;;;;;9.250002;7.200001;;;;;;;14.19;100;95069.09;;;;
2019/08/03 03:13:42;;;;;;;9.250002;7.200001;;;;;;;14.19;100;95069.09;;;;
2019/08/03 03:14:43;;;;;;;9.250002;7.200001;;;;;;;14.19;100;95069.09;;;;
2019/08/03 03:15:44;;;;;;;9.250002;7.200001;;;;;;;14.19;100;95069.09;;;;
2019/08/03 03:16:45;;;;;;;9.250002;7.200001;;;;;;;14.19;100;95069.09;;;;
2019/08/03 03:17:47;;;;;;;9.250002;7.200001;;;;;;;14.19;100;95069.09;;;;
2019/08/03 03:18:48;;;;;;;9.250002;7.200001;;;;;;;14.19;100;95069.09;;;;
2019/08/03 03:19:49;;;;;;;9.250002;7.200001;;;;;;;14.19;100;95069.09;;;;
2019/08/03 03:20:50;;;;;;;10.9;7.599999;;;;;;;14;100;95068.02;;;;
2019/08/03 03:21:51;;;;;;;10.9;7.599999;;;;;;;14;100;95068.02;;;;
2019/08/03 03:22:53;;;;;;;10.9;7.599999;;;;;;;14;100;95068.02;;;;
2019/08/03 03:23:54;;;;;;;10.9;7.599999;;;;;;;14;100;95068.02;;;;
2019/08/03 03:24:55;;;;;;;10.9;7.599999;;;;;;;14;100;95068.02;;;;
2019/08/03 03:25:56;;;;;;;10.9;7.599999;;;;;;;14;100;95068.02;;;;
2019/08/03 03:26:57;;;;;;;10.9;7.599999;;;;;;;14;100;95068.02;;;;
2019/08/03 03:27:58;;;;;;;10.9;7.599999;;;;;;;14;100;95068.02;;;;
2019/08/03 03:29:00;;;;;;;10.9;7.599999;;;;;;;14;100;95068.02;;;;
2019/08/03 03:30:01;;;;;;;10.9;7.599999;;;;;;;14;100;95068.02;;;;
2019/08/03 03:31:05;;;;;;;7.999999;7.3;;;;;;;13.76;100;95065.85;;;;
2019/08/03 03:32:14;;;;;;;7.999999;7.3;;;;;;;13.76;100;95065.85;;;;
2019/08/03 03:33:22;;;;;;;7.999999;7.3;;;;;;;13.76;100;95065.85;;;;
2019/08/03 03:35:28;;;;;;;7.999999;7.3;;;;;;;13.76;100;95065.85;;;;
2019/08/03 03:36:30;;;;;;;7.999999;7.3;;;;;;;13.76;100;95065.85;;;;
2019/08/03 03:37:31;;;;;;;7.999999;7.3;;;;;;;13.76;100;95065.85;;;;
2019/08/03 03:38:32;;;;;;;7.999999;7.3;;;;;;;13.76;100;95065.85;;;;
2019/08/03 03:39:33;;;;;;;7.999999;7.3;;;;;;;13.76;100;95065.85;;;;
2019/08/03 03:40:34;;;;;;;7.999999;7.3;;;;;;;13.76;100;95065.85;;;;
2019/08/03 03:41:40;;;;;;;9.1;7.349999;;;;;;;13.63;100;95054.91;;;;
2019/08/03 03:42:41;;;;;;;9.1;7.349999;;;;;;;13.63;100;95054.91;;;;
2019/08/03 03:43:42;;;;;;;9.1;7.349999;;;;;;;13.63;100;95054.91;;;;
2019/08/03 03:44:43;;;;;;;9.1;7.349999;;;;;;;13.63;100;95054.91;;;;
2019/08/03 03:45:44;;;;;;;9.1;7.349999;;;;;;;13.63;100;95054.91;;;;
2019/08/03 03:46:46;;;;;;;9.1;7.349999;;;;;;;13.63;100;95054.91;;;;
2019/08/03 03:47:47;;;;;;;9.1;7.349999;;;;;;;13.63;100;95054.91;;;;
2019/08/03 03:48:48;;;;;;;9.1;7.349999;;;;;;;13.63;100;95054.91;;;;
2019/08/03 03:49:49;;;;;;;9.1;7.349999;;;;;;;13.63;100;95054.91;;;;
2019/08/03 03:50:51;;;;;;;9.1;7.349999;;;;;;;13.63;100;95054.91;;;;
2019/08/03 03:51:52;;;;;;;9.1;7.349999;;;;;;;13.63;100;95054.91;;;;
2019/08/03 03:52:53;;;;;;;8.549999;7.45;;;;;;;13.48;100;95061.55;;;;
2019/08/03 03:53:54;;;;;;;8.549999;7.45;;;;;;;13.48;100;95061.55;;;;
2019/08/03 03:54:55;;;;;;;8.549999;7.45;;;;;;;13.48;100;95061.55;;;;
2019/08/03 03:55:56;;;;;;;8.549999;7.45;;;;;;;13.48;100;95061.55;;;;
2019/08/03 03:57:14;;;;;;;8.549999;7.45;;;;;;;13.48;100;95061.55;;;;
2019/08/03 03:58:15;;;;;;;8.549999;7.45;;;;;;;13.48;100;95061.55;;;;
2019/08/03 03:59:16;;;;;;;8.549999;7.45;;;;;;;13.48;100;95061.55;;;;
2019/08/03 04:00:17;;;;;;;8.549999;7.45;;;;;;;13.48;100;95061.55;;;;
2019/08/03 04:01:19;;;;;;;8.549999;7.45;;;;;;;13.48;100;95061.55;;;;
2019/08/03 04:02:20;;;;;;;8.549999;7.45;;;;;;;13.48;100;95061.55;;;;
2019/08/03 04:03:21;;;;;;;8.600001;7.5;;;;;;;13.47;100;95061.29;;;;
2019/08/03 04:04:22;;;;;;;8.600001;7.5;;;;;;;13.47;100;95061.29;;;;
2019/08/03 04:05:23;;;;;;;8.600001;7.5;;;;;;;13.47;100;95061.29;;;;
2019/08/03 04:06:39;;;;;;;8.600001;7.5;;;;;;;13.47;100;95061.29;;;;
2019/08/03 04:07:41;;;;;;;8.600001;7.5;;;;;;;13.47;100;95061.29;;;;
2019/08/03 04:08:42;;;;;;;8.600001;7.5;;;;;;;13.47;100;95061.29;;;;
2019/08/03 04:09:43;;;;;;;8.600001;7.5;;;;;;;13.47;100;95061.29;;;;
2019/08/03 04:10:44;;;;;;;8.600001;7.5;;;;;;;13.47;100;95061.29;;;;
2019/08/03 04:11:45;;;;;;;8.600001;7.5;;;;;;;13.47;100;95061.29;;;;
2019/08/03 04:12:46;;;;;;;8.600001;7.5;;;;;;;13.47;100;95061.29;;;;
2019/08/03 04:13:47;;;;;;;8.35;7.249999;;;;;;;13.48;100;95076.89;;;;
2019/08/03 04:14:48;;;;;;;8.35;7.249999;;;;;;;13.48;100;95076.89;;;;
2019/08/03 04:15:49;;;;;;;8.35;7.249999;;;;;;;13.48;100;95076.89;;;;
2019/08/03 04:16:51;;;;;;;8.35;7.249999;;;;;;;13.48;100;95076.89;;;;
2019/08/03 04:17:52;;;;;;;8.35;7.249999;;;;;;;13.48;100;95076.89;;;;
2019/08/03 04:18:53;;;;;;;8.35;7.249999;;;;;;;13.48;100;95076.89;;;;
2019/08/03 04:19:54;;;;;;;8.35;7.249999;;;;;;;13.48;100;95076.89;;;;
2019/08/03 04:20:55;;;;;;;8.35;7.249999;;;;;;;13.48;100;95076.89;;;;
2019/08/03 04:21:56;;;;;;;8.35;7.249999;;;;;;;13.48;100;95076.89;;;;
2019/08/03 04:22:57;;;;;;;8.35;7.249999;;;;;;;13.48;100;95076.89;;;;
2019/08/03 04:23:59;;;;;;;8.400001;7.5;;;;;;;13.45;100;95081.6;;;;
2019/08/03 04:25:00;;;;;;;8.400001;7.5;;;;;;;13.45;100;95081.6;;;;
2019/08/03 04:26:01;;;;;;;8.400001;7.5;;;;;;;13.45;100;95081.6;;;;
2019/08/03 04:27:02;;;;;;;8.400001;7.5;;;;;;;13.45;100;95081.6;;;;
2019/08/03 04:28:29;;;;;;;8.400001;7.5;;;;;;;13.45;100;95081.6;;;;
2019/08/03 04:29:36;;;;;;;8.400001;7.5;;;;;;;13.45;100;95081.6;;;;
2019/08/03 04:30:38;;;;;;;8.400001;7.5;;;;;;;13.45;100;95081.6;;;;
2019/08/03 04:31:50;;;;;;;8.400001;7.5;;;;;;;13.45;100;95081.6;;;;
2019/08/03 04:32:51;;;;;;;8.400001;7.5;;;;;;;13.45;100;95081.6;;;;
2019/08/03 04:33:53;;;;;;;8.400001;7.5;;;;;;;13.45;100;95081.6;;;;
2019/08/03 04:34:54;;;;;;;8.4;7.5;;;;;;;13.34;100;95082.47;;;;
2019/08/03 04:35:55;;;;;;;8.4;7.5;;;;;;;13.34;100;95082.47;;;;
2019/08/03 04:36:56;;;;;;;8.4;7.5;;;;;;;13.34;100;95082.47;;;;
2019/08/03 04:37:57;;;;;;;8.4;7.5;;;;;;;13.34;100;95082.47;;;;
2019/08/03 04:38:58;;;;;;;8.4;7.5;;;;;;;13.34;100;95082.47;;;;
2019/08/03 04:39:59;;;;;;;8.4;7.5;;;;;;;13.34;100;95082.47;;;;
2019/08/03 04:41:00;;;;;;;8.4;7.5;;;;;;;13.34;100;95082.47;;;;
2019/08/03 04:42:02;;;;;;;8.4;7.5;;;;;;;13.34;100;95082.47;;;;
2019/08/03 04:43:03;;;;;;;8.4;7.5;;;;;;;13.34;100;95082.47;;;;
2019/08/03 04:44:04;;;;;;;8.4;7.5;;;;;;;13.34;100;95082.47;;;;
2019/08/03 04:45:06;;;;;;;9.699999;8.699999;;;;;;;13.56;100;95084.53;;;;
2019/08/03 04:46:07;;;;;;;9.699999;8.699999;;;;;;;13.56;100;95084.53;;;;
2019/08/03 04:47:09;;;;;;;9.699999;8.699999;;;;;;;13.56;100;95084.53;;;;
2019/08/03 04:48:10;;;;;;;9.699999;8.699999;;;;;;;13.56;100;95084.53;;;;
2019/08/03 04:49:11;;;;;;;9.699999;8.699999;;;;;;;13.56;100;95084.53;;;;
2019/08/03 04:50:12;;;;;;;9.699999;8.699999;;;;;;;13.56;100;95084.53;;;;
2019/08/03 04:51:30;;;;;;;9.699999;8.699999;;;;;;;13.56;100;95084.53;;;;
2019/08/03 04:52:32;;;;;;;9.699999;8.699999;;;;;;;13.56;100;95084.53;;;;
2019/08/03 04:53:33;;;;;;;9.699999;8.699999;;;;;;;13.56;100;95084.53;;;;
2019/08/03 04:54:34;;;;;;;9.699999;8.699999;;;;;;;13.56;100;95084.53;;;;
2019/08/03 04:55:35;;;;;;;9.699999;8.699999;;;;;;;13.56;100;95084.53;;;;
2019/08/03 04:56:36;;;;;;;14.35;8;;;;;;;13.94;100;95084.44;;;;
2019/08/03 04:57:38;;;;;;;14.35;8;;;;;;;13.94;100;95084.44;;;;
2019/08/03 04:58:39;;;;;;;14.35;8;;;;;;;13.94;100;95084.44;;;;
2019/08/03 04:59:40;;;;;;;14.35;8;;;;;;;13.94;100;95084.44;;;;
2019/08/03 05:00:41;;;;;;;14.35;8;;;;;;;13.94;100;95084.44;;;;
2019/08/03 05:01:44;;;;;;;14.35;8;;;;;;;13.94;100;95084.44;;;;
2019/08/03 05:02:45;;;;;;;14.35;8;;;;;;;13.94;100;95084.44;;;;
2019/08/03 05:03:46;;;;;;;14.35;8;;;;;;;13.94;100;95084.44;;;;
2019/08/03 05:04:47;;;;;;;14.35;8;;;;;;;13.94;100;95084.44;;;;
2019/08/03 05:05:49;;;;;;;14.35;8;;;;;;;13.94;100;95084.44;;;;
2019/08/03 05:06:50;;;;;;;7.5;6.8;;;;;;;14.23;100;95077.14;;;;
2019/08/03 05:07:51;;;;;;;7.5;6.8;;;;;;;14.23;100;95077.14;;;;
2019/08/03 05:08:52;;;;;;;7.5;6.8;;;;;;;14.23;100;95077.14;;;;
2019/08/03 05:09:53;;;;;;;7.5;6.8;;;;;;;14.23;100;95077.14;;;;
2019/08/03 05:10:54;;;;;;;7.5;6.8;;;;;;;14.23;100;95077.14;;;;
2019/08/03 05:11:56;;;;;;;7.5;6.8;;;;;;;14.23;100;95077.14;;;;
2019/08/03 05:12:57;;;;;;;7.5;6.8;;;;;;;14.23;100;95077.14;;;;
2019/08/03 05:13:58;;;;;;;7.5;6.8;;;;;;;14.23;100;95077.14;;;;
2019/08/03 05:14:59;;;;;;;7.5;6.8;;;;;;;14.23;100;95077.14;;;;
2019/08/03 05:16:00;;;;;;;7.5;6.8;;;;;;;14.23;100;95077.14;;;;
2019/08/03 05:17:02;;;;;;;7;6.299999;;;;;;;14.39;100;95071.69;;;;
2019/08/03 05:18:03;;;;;;;7;6.299999;;;;;;;14.39;100;95071.69;;;;
2019/08/03 05:19:04;;;;;;;7;6.299999;;;;;;;14.39;100;95071.69;;;;
2019/08/03 05:20:05;;;;;;;7;6.299999;;;;;;;14.39;100;95071.69;;;;
2019/08/03 05:21:07;;;;;;;7;6.299999;;;;;;;14.39;100;95071.69;;;;
2019/08/03 05:22:08;;;;;;;7;6.299999;;;;;;;14.39;100;95071.69;;;;
2019/08/03 05:23:09;;;;;;;7;6.299999;;;;;;;14.39;100;95071.69;;;;
2019/08/03 05:24:10;;;;;;;7;6.299999;;;;;;;14.39;100;95071.69;;;;
2019/08/03 05:25:11;;;;;;;7;6.299999;;;;;;;14.39;100;95071.69;;;;
2019/08/03 05:26:13;;;;;;;7;6.299999;;;;;;;14.39;100;95071.69;;;;
2019/08/03 05:27:14;;;;;;;7;6.299999;;;;;;;14.39;100;95071.69;;;;
2019/08/03 05:28:15;;;;;;;8.200001;7.400001;;;;;;;14.57;100;95080.17;;;;
2019/08/03 05:29:17;;;;;;;8.200001;7.400001;;;;;;;14.57;100;95080.17;;;;
2019/08/03 05:30:18;;;;;;;8.200001;7.400001;;;;;;;14.57;100;95080.17;;;;
2019/08/03 05:31:40;;;;;;;8.200001;7.400001;;;;;;;14.57;100;95080.17;;;;
2019/08/03 05:32:42;;;;;;;8.200001;7.400001;;;;;;;14.57;100;95080.17;;;;
2019/08/03 05:33:43;;;;;;;8.200001;7.400001;;;;;;;14.57;100;95080.17;;;;
2019/08/03 05:34:44;;;;;;;8.200001;7.400001;;;;;;;14.57;100;95080.17;;;;
2019/08/03 05:35:45;;;;;;;8.200001;7.400001;;;;;;;14.57;100;95080.17;;;;
2019/08/03 05:36:47;;;;;;;8.200001;7.400001;;;;;;;14.57;100;95080.17;;;;
2019/08/03 05:37:48;;;;;;;8.200001;7.400001;;;;;;;14.57;100;95080.17;;;;
2019/08/03 05:38:49;;;;;;;7.950001;6.9;;;;;;;14.85;100;95074.31;;;;
2019/08/03 05:39:50;;;;;;;7.950001;6.9;;;;;;;14.85;100;95074.31;;;;
2019/08/03 05:40:51;;;;;;;7.950001;6.9;;;;;;;14.85;100;95074.31;;;;
2019/08/03 05:41:52;;;;;;;7.950001;6.9;;;;;;;14.85;100;95074.31;;;;
2019/08/03 05:42:53;;;;;;;7.950001;6.9;;;;;;;14.85;100;95074.31;;;;
2019/08/03 05:43:54;;;;;;;7.950001;6.9;;;;;;;14.85;100;95074.31;;;;
2019/08/03 05:44:56;;;;;;;7.950001;6.9;;;;;;;14.85;100;95074.31;;;;
2019/08/03 05:45:57;;;;;;;7.950001;6.9;;;;;;;14.85;100;95074.31;;;;
2019/08/03 05:46:58;;;;;;;7.950001;6.9;;;;;;;14.85;100;95074.31;;;;
2019/08/03 05:47:59;;;;;;;7.950001;6.9;;;;;;;14.85;100;95074.31;;;;
2019/08/03 05:49:00;;;;;;;6.65;6.05;;;;;;;15.21;100;95071.12;;;;
2019/08/03 05:50:01;;;;;;;6.65;6.05;;;;;;;15.21;100;95071.12;;;;
2019/08/03 05:51:03;;;;;;;6.65;6.05;;;;;;;15.21;100;95071.12;;;;
2019/08/03 05:52:05;;;;;;;6.65;6.05;;;;;;;15.21;100;95071.12;;;;
2019/08/03 05:53:06;;;;;;;6.65;6.05;;;;;;;15.21;100;95071.12;;;;
2019/08/03 05:54:08;;;;;;;6.65;6.05;;;;;;;15.21;100;95071.12;;;;
2019/08/03 05:55:09;;;;;;;6.65;6.05;;;;;;;15.21;100;95071.12;;;;
2019/08/03 05:56:15;;;;;;;6.65;6.05;;;;;;;15.21;100;95071.12;;;;
2019/08/03 05:57:16;;;;;;;6.65;6.05;;;;;;;15.21;100;95071.12;;;;
2019/08/03 05:58:18;;;;;;;6.65;6.05;;;;;;;15.21;100;95071.12;;;;
2019/08/03 05:59:19;;;;;;;6.35;5.75;;;;;;;15.53;100;95074.45;;;;
2019/08/03 06:00:20;;;;;;;6.35;5.75;;;;;;;15.53;100;95074.45;;;;